createdAt,value
2023-04-19T00:00:08.733Z,96541.91
2023-04-19T00:01:12.324Z,96543.94
2023-04-19T00:02:13.975Z,96542.63
2023-04-19T00:03:15.843Z,96542.13
2023-04-19T00:04:17.877Z,96544.97
2023-04-19T00:05:22.346Z,96535.44
2023-04-19T00:06:24.607Z,96539.44
2023-04-19T00:07:27.278Z,96537.25
2023-04-19T00:08:29.276Z,96542.59
2023-04-19T00:09:30.948Z,96542.88
2023-04-19T00:10:32.433Z,96538.38
2023-04-19T00:11:34.001Z,96539.91
2023-04-19T00:12:35.441Z,96539.06
2023-04-19T00:13:36.933Z,96537.19
2023-04-19T00:14:38.443Z,96545.41
2023-04-19T00:15:40.125Z,96542.41
2023-04-19T00:16:42.182Z,96544.56
2023-04-19T00:17:43.729Z,96536.75
2023-04-19T00:18:46.696Z,96533.47
2023-04-19T00:19:48.239Z,96535.13
2023-04-19T00:20:49.746Z,96530.81
2023-04-19T00:21:51.310Z,96536.63
2023-04-19T00:22:52.779Z,96531.81
2023-04-19T00:23:54.291Z,96534.94
2023-04-19T00:24:55.841Z,96533.31
2023-04-19T00:25:57.322Z,96533.94
2023-04-19T00:26:59.329Z,96533.94
2023-04-19T00:28:00.858Z,96533.47
2023-04-19T00:29:02.347Z,96535.81
2023-04-19T00:30:04.167Z,96533.50
2023-04-19T00:31:05.935Z,96542.28
2023-04-19T00:32:07.428Z,96528.16
2023-04-19T00:33:13.074Z,96540.13
2023-04-19T00:34:15.045Z,96531.25
2023-04-19T00:35:16.821Z,96525.25
2023-04-19T00:36:18.312Z,96530.81
2023-04-19T00:37:21.889Z,96527.78
2023-04-19T00:38:23.445Z,96525.13
2023-04-19T00:39:24.960Z,96527.47
2023-04-19T00:40:26.494Z,96522.66
2023-04-19T00:41:28.034Z,96528.97
2023-04-19T00:42:29.522Z,96529.34
2023-04-19T00:43:30.976Z,96516.66
2023-04-19T00:44:32.521Z,96529.69
2023-04-19T00:45:36.284Z,96523.03
2023-04-19T00:46:38.146Z,96525.13
2023-04-19T00:47:39.912Z,96522.66
2023-04-19T00:48:41.589Z,96519.31
2023-04-19T00:49:43.430Z,96517.00
2023-04-19T00:50:45.210Z,96512.03
2023-04-19T00:51:47.686Z,96508.84
2023-04-19T00:52:49.388Z,96513.53
2023-04-19T00:53:52.544Z,96516.16
2023-04-19T00:54:54.769Z,96514.19
2023-04-19T00:55:57.671Z,96507.88
2023-04-19T00:56:59.287Z,96507.06
2023-04-19T00:58:00.820Z,96515.88
2023-04-19T00:59:02.740Z,96514.06
2023-04-19T01:00:07.593Z,96518.06
2023-04-19T01:01:09.113Z,96523.22
2023-04-19T01:02:10.913Z,96520.69
2023-04-19T01:03:13.610Z,96513.06
2023-04-19T01:04:16.527Z,96508.41
2023-04-19T01:05:18.446Z,96513.75
2023-04-19T01:06:20.963Z,96521.06
2023-04-19T01:07:22.581Z,96519.09
2023-04-19T01:08:24.194Z,96512.75
2023-04-19T01:09:28.686Z,96521.72
2023-04-19T01:10:32.383Z,96511.09
2023-04-19T01:11:34.122Z,96512.41
2023-04-19T01:12:35.994Z,96513.41
2023-04-19T01:13:38.527Z,96516.53
2023-04-19T01:14:40.360Z,96512.41
2023-04-19T01:15:42.205Z,96513.03
2023-04-19T01:16:43.853Z,96509.25
2023-04-19T01:17:46.165Z,96512.25
2023-04-19T01:18:47.747Z,96513.75
2023-04-19T01:19:49.595Z,96510.44
2023-04-19T01:20:51.742Z,96512.28
2023-04-19T01:21:53.261Z,96506.94
2023-04-19T01:22:54.694Z,96507.13
2023-04-19T01:23:56.394Z,96504.13
2023-04-19T01:24:58.815Z,96505.88
2023-04-19T01:26:02.027Z,96507.91
2023-04-19T01:27:03.600Z,96507.41
2023-04-19T01:28:05.479Z,96504.44
2023-04-19T01:29:06.935Z,96502.59
2023-04-19T01:30:09.041Z,96502.94
2023-04-19T01:31:10.614Z,96497.44
2023-04-19T01:32:13.711Z,96496.94
2023-04-19T01:33:15.230Z,96499.13
2023-04-19T01:34:17.307Z,96494.44
2023-04-19T01:35:18.904Z,96495.78
2023-04-19T01:36:20.504Z,96499.97
2023-04-19T01:37:22.004Z,96494.47
2023-04-19T01:38:23.527Z,96496.47
2023-04-19T01:39:26.492Z,96492.31
2023-04-19T01:40:28.051Z,96488.97
2023-04-19T01:41:29.803Z,96489.66
2023-04-19T01:42:31.369Z,96488.16
2023-04-19T01:43:35.081Z,96485.00
2023-04-19T01:44:36.625Z,96485.84
2023-04-19T01:45:38.169Z,96483.31
2023-04-19T01:46:42.589Z,96483.69
2023-04-19T01:47:44.583Z,96489.00
2023-04-19T01:48:46.081Z,96486.34
2023-04-19T01:49:47.582Z,96478.88
2023-04-19T01:50:50.689Z,96476.84
2023-04-19T01:51:52.193Z,96478.53
2023-04-19T01:52:55.374Z,96482.66
2023-04-19T01:53:58.093Z,96487.31
2023-04-19T01:54:59.648Z,96485.00
2023-04-19T01:56:01.151Z,96480.66
2023-04-19T01:57:03.057Z,96483.03
2023-04-19T01:58:04.604Z,96483.22
2023-04-19T01:59:06.267Z,96484.19
2023-04-19T02:00:08.843Z,96477.03
2023-04-19T02:01:15.682Z,96481.72
2023-04-19T02:02:17.291Z,96478.38
2023-04-19T02:03:18.961Z,96475.41
2023-04-19T02:04:22.265Z,96473.22
2023-04-19T02:05:24.013Z,96476.84
2023-04-19T02:06:26.830Z,96472.06
2023-04-19T02:07:28.359Z,96476.53
2023-04-19T02:08:32.756Z,96479.69
2023-04-19T02:09:36.779Z,96473.56
2023-04-19T02:10:38.304Z,96468.59
2023-04-19T02:11:41.028Z,96471.72
2023-04-19T02:12:42.965Z,96470.56
2023-04-19T02:13:44.443Z,96467.56
2023-04-19T02:14:45.968Z,96467.72
2023-04-19T02:15:47.560Z,96469.56
2023-04-19T02:16:49.255Z,96464.88
2023-04-19T02:17:50.964Z,96467.88
2023-04-19T02:18:53.947Z,96461.25
2023-04-19T02:19:55.559Z,96460.44
2023-04-19T02:20:57.463Z,96462.91
2023-04-19T02:21:59.246Z,96459.94
2023-04-19T02:23:00.797Z,96457.94
2023-04-19T02:24:02.758Z,96457.59
2023-04-19T02:25:05.429Z,96452.78
2023-04-19T02:26:07.048Z,96454.44
2023-04-19T02:27:09.396Z,96453.97
2023-04-19T02:28:10.934Z,96446.31
2023-04-19T02:29:12.445Z,96457.78
2023-04-19T02:30:14.061Z,96446.97
2023-04-19T02:31:15.646Z,96442.97
2023-04-19T02:32:17.169Z,96452.63
2023-04-19T02:33:18.799Z,96446.00
2023-04-19T02:34:20.377Z,96448.94
2023-04-19T02:35:21.962Z,96445.81
2023-04-19T02:36:23.538Z,96439.34
2023-04-19T02:37:25.104Z,96442.66
2023-04-19T02:38:26.595Z,96436.50
2023-04-19T02:39:28.666Z,96440.50
2023-04-19T02:40:30.647Z,96440.16
2023-04-19T02:41:33.549Z,96437.50
2023-04-19T02:42:37.280Z,96436.03
2023-04-19T02:43:39.933Z,96439.50
2023-04-19T02:44:41.439Z,96438.00
2023-04-19T02:45:43.006Z,96442.97
2023-04-19T02:46:53.869Z,96438.44
2023-04-19T02:47:55.578Z,96431.00
2023-04-19T02:49:00.744Z,96434.16
2023-04-19T02:50:02.736Z,96436.00
2023-04-19T02:51:07.065Z,96430.31
2023-04-19T02:52:08.864Z,96435.63
2023-04-19T02:53:13.114Z,96439.00
2023-04-19T02:54:15.695Z,96437.00
2023-04-19T02:55:19.193Z,96433.84
2023-04-19T02:56:23.854Z,96432.72
2023-04-19T02:57:25.383Z,96431.56
2023-04-19T02:58:27.189Z,96435.69
2023-04-19T02:59:39.062Z,96431.56
2023-04-19T03:00:40.684Z,96428.75
2023-04-19T03:01:46.305Z,96432.72
2023-04-19T03:02:48.394Z,96431.06
2023-04-19T03:03:50.735Z,96433.34
2023-04-19T03:04:53.289Z,96429.72
2023-04-19T03:05:55.668Z,96430.06
2023-04-19T03:06:57.685Z,96425.72
2023-04-19T03:07:59.287Z,96437.34
2023-04-19T03:09:01.060Z,96433.88
2023-04-19T03:10:02.638Z,96425.06
2023-04-19T03:11:06.315Z,96430.91
2023-04-19T03:12:08.263Z,96434.53
2023-04-19T03:13:09.833Z,96432.75
2023-04-19T03:14:11.455Z,96429.56
2023-04-19T03:15:13.282Z,96426.91
2023-04-19T03:16:14.814Z,96427.59
2023-04-19T03:17:17.645Z,96428.41
2023-04-19T03:18:19.903Z,96429.06
2023-04-19T03:19:21.785Z,96427.25
2023-04-19T03:20:26.727Z,96423.63
2023-04-19T03:21:29.154Z,96426.75
2023-04-19T03:22:31.223Z,96426.13
2023-04-19T03:23:32.711Z,96427.25
2023-04-19T03:24:37.734Z,96430.44
2023-04-19T03:25:57.255Z,96426.78
2023-04-19T03:27:18.996Z,96426.13
2023-04-19T03:28:24.097Z,96428.13
2023-04-19T03:29:47.848Z,96427.13
2023-04-19T03:30:50.620Z,96425.31
2023-04-19T03:31:52.134Z,96427.13
2023-04-19T03:32:54.064Z,96425.63
2023-04-19T03:33:55.681Z,96423.16
2023-04-19T03:35:03.547Z,96423.50
2023-04-19T03:36:05.309Z,96427.13
2023-04-19T03:37:07.519Z,96426.81
2023-04-19T03:38:09.188Z,96424.31
2023-04-19T03:39:10.762Z,96430.59
2023-04-19T03:40:14.558Z,96426.13
2023-04-19T03:41:23.447Z,96435.91
2023-04-19T03:42:33.519Z,96423.63
2023-04-19T03:43:41.143Z,96423.63
2023-04-19T03:44:42.617Z,96422.13
2023-04-19T03:45:45.100Z,96415.66
2023-04-19T03:46:48.777Z,96417.28
2023-04-19T03:47:53.814Z,96413.00
2023-04-19T03:48:55.538Z,96418.16
2023-04-19T03:49:58.677Z,96420.16
2023-04-19T03:51:02.189Z,96412.50
2023-04-19T03:52:03.993Z,96415.66
2023-04-19T03:53:05.897Z,96419.66
2023-04-19T03:54:07.481Z,96411.69
2023-04-19T03:55:09.868Z,96410.84
2023-04-19T03:56:14.631Z,96415.50
2023-04-19T03:57:17.636Z,96419.81
2023-04-19T03:58:19.133Z,96415.97
2023-04-19T03:59:32.765Z,96413.97
2023-04-19T04:00:36.436Z,96418.16
2023-04-19T04:01:42.312Z,96408.50
2023-04-19T04:02:44.409Z,96413.81
2023-04-19T04:03:48.330Z,96405.03
2023-04-19T04:04:55.048Z,96414.16
2023-04-19T04:05:58.025Z,96402.84
2023-04-19T04:06:59.802Z,96407.50
2023-04-19T04:08:01.469Z,96411.97
2023-04-19T04:09:03.540Z,96413.00
2023-04-19T04:10:06.211Z,96406.53
2023-04-19T04:11:13.203Z,96414.81
2023-04-19T04:12:14.742Z,96411.00
2023-04-19T04:13:17.027Z,96411.50
2023-04-19T04:14:26.772Z,96418.78
2023-04-19T04:15:28.507Z,96409.97
2023-04-19T04:16:31.171Z,96407.31
2023-04-19T04:17:32.786Z,96413.63
2023-04-19T04:18:34.430Z,96414.31
2023-04-19T04:19:38.778Z,96413.28
2023-04-19T04:20:41.488Z,96410.16
2023-04-19T04:21:45.779Z,96411.84
2023-04-19T04:22:47.958Z,96412.47
2023-04-19T04:23:53.168Z,96414.16
2023-04-19T04:25:16.431Z,96413.16
2023-04-19T04:26:20.002Z,96411.31
2023-04-19T04:27:40.314Z,96418.31
2023-04-19T04:28:47.257Z,96417.47
2023-04-19T04:29:50.531Z,96415.50
2023-04-19T04:30:52.003Z,96417.97
2023-04-19T04:31:53.652Z,96412.47
2023-04-19T04:32:59.867Z,96410.63
2023-04-19T04:34:03.019Z,96413.28
2023-04-19T04:35:08.068Z,96411.00
2023-04-19T04:36:26.191Z,96410.50
2023-04-19T04:37:31.198Z,96407.16
2023-04-19T04:38:33.497Z,96409.81
2023-04-19T04:39:39.172Z,96416.13
2023-04-19T04:40:42.185Z,96413.66
2023-04-19T04:41:43.688Z,96409.81
2023-04-19T04:42:45.539Z,96411.84
2023-04-19T04:44:04.531Z,96409.47
2023-04-19T04:45:11.820Z,96414.63
2023-04-19T04:46:14.442Z,96407.78
2023-04-19T04:47:17.315Z,96411.13
2023-04-19T04:48:26.541Z,96419.44
2023-04-19T04:49:28.106Z,96415.44
2023-04-19T04:50:29.624Z,96415.44
2023-04-19T04:51:32.377Z,96415.75
2023-04-19T04:52:34.880Z,96413.44
2023-04-19T04:53:43.713Z,96410.41
2023-04-19T04:54:45.195Z,96414.56
2023-04-19T04:55:55.910Z,96410.41
2023-04-19T04:56:59.078Z,96414.38
2023-04-19T04:58:01.410Z,96408.91
2023-04-19T04:59:12.534Z,96419.66
2023-04-19T05:00:17.962Z,96414.81
2023-04-19T05:01:32.888Z,96415.47
2023-04-19T05:02:34.875Z,96419.31
2023-04-19T05:03:36.581Z,96417.31
2023-04-19T05:04:40.765Z,96420.28
2023-04-19T05:05:44.470Z,96416.75
2023-04-19T05:06:46.726Z,96417.09
2023-04-19T05:07:53.666Z,96423.25
2023-04-19T05:08:55.157Z,96413.63
2023-04-19T05:10:08.433Z,96420.94
2023-04-19T05:11:18.442Z,96416.44
2023-04-19T05:12:21.069Z,96419.72
2023-04-19T05:13:22.602Z,96421.88
2023-04-19T05:14:25.315Z,96419.06
2023-04-19T05:15:27.232Z,96425.88
2023-04-19T05:16:30.388Z,96421.56
2023-04-19T05:17:32.298Z,96428.00
2023-04-19T05:18:33.984Z,96423.50
2023-04-19T05:19:35.444Z,96420.75
2023-04-19T05:20:41.403Z,96424.72
2023-04-19T05:21:51.084Z,96424.53
2023-04-19T05:22:58.218Z,96425.00
2023-04-19T05:23:59.775Z,96412.69
2023-04-19T05:25:02.139Z,96417.16
2023-04-19T05:26:03.796Z,96423.09
2023-04-19T05:27:06.679Z,96431.59
2023-04-19T05:28:08.219Z,96420.63
2023-04-19T05:29:18.426Z,96435.06
2023-04-19T05:30:23.189Z,96423.41
2023-04-19T05:31:25.470Z,96435.19
2023-04-19T05:32:40.774Z,96437.22
2023-04-19T05:33:44.468Z,96431.59
2023-04-19T05:34:46.136Z,96433.72
2023-04-19T05:35:49.978Z,96429.47
2023-04-19T05:36:51.425Z,96426.66
2023-04-19T05:37:52.957Z,96435.66
2023-04-19T05:38:54.415Z,96426.84
2023-04-19T05:39:56.111Z,96429.91
2023-04-19T05:40:57.657Z,96435.22
2023-04-19T05:41:59.699Z,96432.56
2023-04-19T05:43:01.474Z,96431.84
2023-04-19T05:44:03.076Z,96440.69
2023-04-19T05:45:06.421Z,96439.53
2023-04-19T05:46:08.530Z,96433.91
2023-04-19T05:47:10.267Z,96439.09
2023-04-19T05:48:30.403Z,96433.56
2023-04-19T05:49:52.236Z,96436.22
2023-04-19T05:51:01.445Z,96434.56
2023-04-19T05:52:23.385Z,96438.03
2023-04-19T05:53:28.466Z,96438.69
2023-04-19T05:54:34.711Z,96440.66
2023-04-19T05:55:36.555Z,96441.16
2023-04-19T05:56:38.959Z,96439.78
2023-04-19T05:57:40.558Z,96433.81
2023-04-19T05:58:42.107Z,96438.16
2023-04-19T05:59:43.722Z,96442.84
2023-04-19T06:00:48.844Z,96447.66
2023-04-19T06:01:53.323Z,96440.50
2023-04-19T06:02:54.858Z,96439.03
2023-04-19T06:03:56.822Z,96448.13
2023-04-19T06:05:02.515Z,96443.94
2023-04-19T06:06:06.782Z,96443.09
2023-04-19T06:07:17.768Z,96445.13
2023-04-19T06:08:30.137Z,96446.97
2023-04-19T06:09:31.711Z,96446.59
2023-04-19T06:10:47.926Z,96444.81
2023-04-19T06:11:54.711Z,96440.13
2023-04-19T06:12:56.258Z,96442.09
2023-04-19T06:13:57.785Z,96446.06
2023-04-19T06:14:59.285Z,96451.19
2023-04-19T06:16:01.024Z,96444.50
2023-04-19T06:17:02.979Z,96443.84
2023-04-19T06:18:05.800Z,96442.31
2023-04-19T06:19:10.267Z,96448.66
2023-04-19T06:20:12.625Z,96445.97
2023-04-19T06:21:14.252Z,96453.84
2023-04-19T06:22:15.711Z,96455.63
2023-04-19T06:23:18.394Z,96452.47
2023-04-19T06:24:20.246Z,96453.47
2023-04-19T06:25:21.823Z,96452.63
2023-04-19T06:26:23.382Z,96448.66
2023-04-19T06:27:25.037Z,96452.31
2023-04-19T06:28:26.685Z,96449.50
2023-04-19T06:29:28.423Z,96453.56
2023-04-19T06:30:29.945Z,96451.31
2023-04-19T06:31:31.725Z,96454.38
2023-04-19T06:32:33.288Z,96461.16
2023-04-19T06:33:34.803Z,96452.47
2023-04-19T06:34:36.296Z,96449.19
2023-04-19T06:35:38.246Z,96448.66
2023-04-19T06:36:39.829Z,96452.25
2023-04-19T06:37:41.659Z,96447.59
2023-04-19T06:38:44.537Z,96452.50
2023-04-19T06:39:46.146Z,96449.31
2023-04-19T06:40:47.650Z,96448.81
2023-04-19T06:41:49.148Z,96445.22
2023-04-19T06:42:53.256Z,96451.16
2023-04-19T06:43:54.948Z,96452.03
2023-04-19T06:44:57.287Z,96448.00
2023-04-19T06:45:59.865Z,96445.53
2023-04-19T06:47:01.385Z,96448.19
2023-04-19T06:48:03.038Z,96448.06
2023-04-19T06:49:04.577Z,96444.34
2023-04-19T06:50:06.793Z,96448.84
2023-04-19T06:51:08.334Z,96443.69
2023-04-19T06:52:09.996Z,96446.78
2023-04-19T06:53:11.422Z,96444.69
2023-04-19T06:54:12.855Z,96438.34
2023-04-19T06:55:14.464Z,96440.81
2023-04-19T06:56:16.170Z,96437.91
2023-04-19T06:57:19.001Z,96443.59
2023-04-19T06:58:20.948Z,96446.06
2023-04-19T06:59:22.557Z,96440.41
2023-04-19T07:00:24.131Z,96437.09
2023-04-19T07:01:26.034Z,96447.75
2023-04-19T07:02:27.691Z,96437.81
2023-04-19T07:03:29.740Z,96440.81
2023-04-19T07:04:31.598Z,96440.41
2023-04-19T07:05:33.212Z,96444.97
2023-04-19T07:06:35.943Z,96449.22
2023-04-19T07:07:38.284Z,96441.84
2023-04-19T07:08:49.472Z,96439.56
2023-04-19T07:09:51.846Z,96433.72
2023-04-19T07:10:53.981Z,96439.34
2023-04-19T07:11:55.635Z,96432.03
2023-04-19T07:12:57.206Z,96439.34
2023-04-19T07:14:00.817Z,96437.06
2023-04-19T07:15:02.412Z,96445.63
2023-04-19T07:16:05.645Z,96438.72
2023-04-19T07:17:07.407Z,96443.22
2023-04-19T07:18:11.056Z,96438.72
2023-04-19T07:19:13.268Z,96445.44
2023-04-19T07:20:15.042Z,96440.72
2023-04-19T07:21:16.560Z,96439.34
2023-04-19T07:22:18.060Z,96436.88
2023-04-19T07:23:19.749Z,96433.66
2023-04-19T07:24:21.290Z,96449.38
2023-04-19T07:25:22.775Z,96432.38
2023-04-19T07:26:24.369Z,96434.50
2023-04-19T07:27:25.986Z,96432.47
2023-04-19T07:28:30.932Z,96432.03
2023-04-19T07:29:34.880Z,96432.56
2023-04-19T07:30:36.587Z,96429.91
2023-04-19T07:31:38.238Z,96437.53
2023-04-19T07:32:40.263Z,96443.44
2023-04-19T07:33:41.996Z,96438.63
2023-04-19T07:34:43.715Z,96430.91
2023-04-19T07:35:45.293Z,96436.34
2023-04-19T07:36:46.752Z,96433.66
2023-04-19T07:37:48.259Z,96434.69
2023-04-19T07:38:49.925Z,96428.34
2023-04-19T07:39:51.487Z,96429.16
2023-04-19T07:40:53.159Z,96425.66
2023-04-19T07:41:54.597Z,96425.47
2023-04-19T07:42:56.573Z,96421.91
2023-04-19T07:43:58.075Z,96429.53
2023-04-19T07:45:00.177Z,96425.66
2023-04-19T07:46:02.525Z,96428.88
2023-04-19T07:47:06.096Z,96423.38
2023-04-19T07:48:07.633Z,96425.94
2023-04-19T07:49:09.122Z,96427.47
2023-04-19T07:50:11.748Z,96422.03
2023-04-19T07:51:16.453Z,96421.66
2023-04-19T07:52:18.424Z,96421.84
2023-04-19T07:53:20.014Z,96425.53
2023-04-19T07:54:21.542Z,96417.19
2023-04-19T07:55:23.166Z,96418.59
2023-04-19T07:56:26.435Z,96425.16
2023-04-19T07:57:27.990Z,96423.38
2023-04-19T07:58:29.534Z,96416.94
2023-04-19T07:59:33.332Z,96425.56
2023-04-19T08:00:36.705Z,96423.56
2023-04-19T08:01:38.440Z,96419.34
2023-04-19T08:02:42.462Z,96417.44
2023-04-19T08:03:44.253Z,96419.56
2023-04-19T08:04:48.352Z,96418.19
2023-04-19T08:05:50.659Z,96418.03
2023-04-19T08:06:52.965Z,96412.28
2023-04-19T08:07:54.417Z,96420.41
2023-04-19T08:08:55.946Z,96416.38
2023-04-19T08:09:57.520Z,96419.00
2023-04-19T08:11:01.787Z,96415.53
2023-04-19T08:12:03.615Z,96415.97
2023-04-19T08:13:06.801Z,96408.63
2023-04-19T08:14:18.540Z,96411.34
2023-04-19T08:16:13.024Z,96404.66
2023-04-19T08:17:55.281Z,96406.78
2023-04-19T08:18:56.780Z,96408.03
2023-04-19T08:19:58.258Z,96410.91
2023-04-19T08:20:59.759Z,96402.84
2023-04-19T08:22:01.318Z,96402.28
2023-04-19T08:23:14.090Z,96406.84
2023-04-19T08:24:19.949Z,96404.50
2023-04-19T08:25:23.591Z,96400.34
2023-04-19T08:26:25.212Z,96407.28
2023-04-19T08:27:27.145Z,96405.41
2023-04-19T08:28:28.744Z,96407.88
2023-04-19T08:29:30.275Z,96402.97
2023-04-19T08:30:32.568Z,96400.19
2023-04-19T08:31:34.114Z,96408.84
2023-04-19T08:32:35.594Z,96406.19
2023-04-19T08:33:37.143Z,96403.50
2023-04-19T08:34:40.298Z,96406.97
2023-04-19T08:35:42.043Z,96399.31
2023-04-19T08:36:51.930Z,96400.97
2023-04-19T08:38:03.401Z,96397.47
2023-04-19T08:39:14.857Z,96399.72
2023-04-19T08:40:23.033Z,96392.25
2023-04-19T08:41:26.644Z,96396.00
2023-04-19T08:42:35.484Z,96396.78
2023-04-19T08:43:40.505Z,96396.16
2023-04-19T08:45:02.160Z,96389.44
2023-04-19T08:46:07.745Z,96407.66
2023-04-19T08:47:15.194Z,96400.00
2023-04-19T08:48:23.734Z,96399.38
2023-04-19T08:49:25.990Z,96399.00
2023-04-19T08:50:35.411Z,96397.09
2023-04-19T08:51:40.778Z,96396.16
2023-04-19T08:52:54.224Z,96401.19
2023-04-19T08:53:59.636Z,96397.88
2023-04-19T08:55:06.128Z,96397.28
2023-04-19T08:56:17.881Z,96404.56
2023-04-19T08:57:25.696Z,96405.22
2023-04-19T08:59:35.798Z,96397.91
2023-04-19T09:00:41.330Z,96389.75
2023-04-19T09:01:44.704Z,96400.53
2023-04-19T09:02:52.274Z,96401.19
2023-04-19T09:04:04.908Z,96394.44
2023-04-19T09:05:13.837Z,96397.41
2023-04-19T09:06:15.929Z,96392.47
2023-04-19T09:07:25.249Z,96395.66
2023-04-19T09:08:31.337Z,96395.63
2023-04-19T09:09:40.811Z,96390.69
2023-04-19T09:11:01.169Z,96388.41
2023-04-19T09:12:02.937Z,96394.41
2023-04-19T09:13:06.083Z,96387.56
2023-04-19T09:14:09.333Z,96380.53
2023-04-19T09:15:11.424Z,96385.25
2023-04-19T09:16:30.861Z,96379.19
2023-04-19T09:17:32.832Z,96379.19
2023-04-19T09:19:02.380Z,96380.41
2023-04-19T09:20:10.161Z,96375.69
2023-04-19T09:21:28.113Z,96381.13
2023-04-19T09:22:29.873Z,96375.97
2023-04-19T09:23:31.448Z,96376.44
2023-04-19T09:26:22.203Z,96375.38
2023-04-19T09:27:33.907Z,96376.66
2023-04-19T09:28:35.453Z,96371.81
2023-04-19T09:29:36.920Z,96368.94
2023-04-19T09:30:46.968Z,96366.84
2023-04-19T09:32:00.517Z,96367.50
2023-04-19T09:33:02.310Z,96367.06
2023-04-19T09:34:17.982Z,96369.84
2023-04-19T09:35:19.594Z,96369.97
2023-04-19T09:36:28.487Z,96367.06
2023-04-19T09:37:51.585Z,96367.34
2023-04-19T09:38:51.506Z,96356.47
2023-04-19T09:39:53.852Z,96357.34
2023-04-19T09:41:08.957Z,96365.25
2023-04-19T09:42:10.730Z,96359.38
2023-04-19T09:43:45.271Z,96356.63
2023-04-19T09:45:12.634Z,96360.31
2023-04-19T09:45:56.543Z,96356.34
2023-04-19T09:46:58.072Z,96354.84
2023-04-19T09:48:05.463Z,96350.88
2023-04-19T09:49:21.277Z,96349.88
2023-04-19T09:50:31.306Z,96354.81
2023-04-19T09:51:41.071Z,96348.38
2023-04-19T09:52:42.695Z,96348.09
2023-04-19T09:53:44.811Z,96342.69
2023-04-19T09:54:46.665Z,96354.84
2023-04-19T09:55:57.763Z,96351.19
2023-04-19T09:57:02.832Z,96347.09
2023-04-19T09:58:04.362Z,96334.03
2023-04-19T09:59:19.955Z,96346.72
2023-04-19T10:00:28.285Z,96340.19
2023-04-19T10:01:35.759Z,96338.63
2023-04-19T10:02:38.432Z,96338.66
2023-04-19T10:03:40.249Z,96337.13
2023-04-19T10:04:57.390Z,96331.31
2023-04-19T10:06:10.788Z,96320.44
2023-04-19T10:08:21.699Z,96336.78
2023-04-19T10:09:24.012Z,96327.84
2023-04-19T10:10:40.327Z,96327.31
2023-04-19T10:11:52.252Z,96332.06
2023-04-19T10:13:16.005Z,96331.50
2023-04-19T10:14:25.170Z,96319.22
2023-04-19T10:15:33.735Z,96325.97
2023-04-19T10:16:44.949Z,96320.81
2023-04-19T10:17:46.676Z,96314.41
2023-04-19T10:18:53.148Z,96312.34
2023-04-19T10:20:06.880Z,96315.47
2023-04-19T10:21:10.652Z,96321.72
2023-04-19T10:22:14.260Z,96326.19
2023-04-19T10:23:17.051Z,96316.06
2023-04-19T10:24:19.685Z,96313.78
2023-04-19T10:25:29.714Z,96315.41
2023-04-19T10:27:03.646Z,96315.69
2023-04-19T10:28:05.416Z,96316.78
2023-04-19T10:29:06.896Z,96314.69
2023-04-19T10:30:20.840Z,96326.34
2023-04-19T10:31:23.639Z,96316.09
2023-04-19T10:32:30.264Z,96317.94
2023-04-19T10:33:36.322Z,96311.84
2023-04-19T10:34:39.883Z,96314.19
2023-04-19T10:35:44.757Z,96314.78
2023-04-19T10:36:46.291Z,96313.50
2023-04-19T10:38:02.737Z,96304.25
2023-04-19T10:39:04.905Z,96306.69
2023-04-19T10:40:07.423Z,96303.28
2023-04-19T10:41:15.384Z,96302.69
2023-04-19T10:42:18.753Z,96291.78
2023-04-19T10:43:20.822Z,96297.97
2023-04-19T10:44:22.658Z,96295.66
2023-04-19T10:45:36.583Z,96296.97
2023-04-19T10:46:41.902Z,96301.19
2023-04-19T10:47:44.970Z,96292.84
2023-04-19T10:48:53.379Z,96296.59
2023-04-19T10:49:55.727Z,96295.38
2023-04-19T10:51:05.744Z,96292.66
2023-04-19T10:52:27.562Z,96297.84
2023-04-19T10:53:51.519Z,96295.88
2023-04-19T10:54:56.933Z,96285.44
2023-04-19T10:55:58.386Z,96296.38
2023-04-19T10:57:07.784Z,96290.91
2023-04-19T10:58:09.284Z,96287.34
2023-04-19T10:59:21.628Z,96287.19
2023-04-19T11:00:25.697Z,96287.88
2023-04-19T11:02:01.297Z,96272.81
2023-04-19T11:03:42.023Z,96277.53
2023-04-19T11:04:59.073Z,96274.66
2023-04-19T11:06:33.355Z,96273.03
2023-04-19T11:07:39.177Z,96271.44
2023-04-19T11:08:44.731Z,96274.44
2023-04-19T11:09:47.591Z,96265.75
2023-04-19T11:10:49.218Z,96262.59
2023-04-19T11:11:52.542Z,96262.97
2023-04-19T11:12:54.115Z,96267.72
2023-04-19T11:13:56.580Z,96257.19
2023-04-19T11:14:59.896Z,96259.22
2023-04-19T11:16:08.208Z,96264.63
2023-04-19T11:17:20.540Z,96260.19
2023-04-19T11:18:22.068Z,96255.97
2023-04-19T11:19:23.678Z,96260.44
2023-04-19T11:20:25.268Z,96266.84
2023-04-19T11:21:30.346Z,96260.75
2023-04-19T11:22:36.642Z,96261.50
2023-04-19T11:23:38.117Z,96261.09
2023-04-19T11:24:46.081Z,96263.19
2023-04-19T11:25:51.783Z,96252.44
2023-04-19T11:26:55.971Z,96261.38
2023-04-19T11:27:57.720Z,96254.31
2023-04-19T11:28:59.973Z,96257.25
2023-04-19T11:30:04.724Z,96253.84
2023-04-19T11:31:07.038Z,96251.38
2023-04-19T11:32:08.537Z,96247.06
2023-04-19T11:33:12.509Z,96250.59
2023-04-19T11:34:14.053Z,96246.06
2023-04-19T11:35:19.411Z,96254.34
2023-04-19T11:36:21.035Z,96240.44
2023-04-19T11:37:23.011Z,96237.66
2023-04-19T11:38:27.837Z,96242.59
2023-04-19T11:39:29.314Z,96243.75
2023-04-19T11:40:31.816Z,96246.66
2023-04-19T11:41:39.748Z,96248.03
2023-04-19T11:42:41.418Z,96247.63
2023-04-19T11:43:45.198Z,96241.97
2023-04-19T11:44:51.690Z,96250.19
2023-04-19T11:45:54.203Z,96249.91
2023-04-19T11:47:03.339Z,96245.59
2023-04-19T11:48:05.829Z,96251.28
2023-04-19T11:49:07.844Z,96241.16
2023-04-19T11:50:38.427Z,96247.72
2023-04-19T11:51:43.466Z,96246.56
2023-04-19T11:52:49.568Z,96242.09
2023-04-19T11:53:51.105Z,96235.31
2023-04-19T11:54:53.335Z,96239.66
2023-04-19T11:56:03.385Z,96234.94
2023-04-19T11:57:06.833Z,96241.13
2023-04-19T11:58:11.298Z,96237.22
2023-04-19T11:59:12.843Z,96235.34
2023-04-19T12:00:14.778Z,96236.16
2023-04-19T12:01:21.119Z,96241.34
2023-04-19T12:02:22.794Z,96242.56
2023-04-19T12:03:26.473Z,96237.59
2023-04-19T12:04:29.056Z,96232.25
2023-04-19T12:05:31.340Z,96234.72
2023-04-19T12:06:32.855Z,96235.97
2023-04-19T12:07:34.356Z,96231.41
2023-04-19T12:08:43.836Z,96229.13
2023-04-19T12:09:48.938Z,96225.41
2023-04-19T12:10:57.566Z,96228.25
2023-04-19T12:11:59.109Z,96227.63
2023-04-19T12:13:01.065Z,96231.53
2023-04-19T12:14:15.866Z,96230.09
2023-04-19T12:15:17.715Z,96226.31
2023-04-19T12:16:27.924Z,96226.31
2023-04-19T12:17:29.523Z,96232.22
2023-04-19T12:18:48.979Z,96227.50
2023-04-19T12:19:52.015Z,96226.22
2023-04-19T12:20:53.948Z,96224.81
2023-04-19T12:22:08.805Z,96223.25
2023-04-19T12:23:13.798Z,96225.28
2023-04-19T12:24:16.514Z,96226.75
2023-04-19T12:25:18.194Z,96227.56
2023-04-19T12:26:20.070Z,96227.69
2023-04-19T12:27:21.599Z,96226.66
2023-04-19T12:28:23.129Z,96225.84
2023-04-19T12:29:24.805Z,96231.03
2023-04-19T12:30:26.505Z,96223.78
2023-04-19T12:31:28.103Z,96233.28
2023-04-19T12:32:29.861Z,96232.25
2023-04-19T12:33:31.372Z,96230.16
2023-04-19T12:34:32.912Z,96230.16
2023-04-19T12:35:34.990Z,96227.44
2023-04-19T12:36:36.542Z,96230.47
2023-04-19T12:37:38.048Z,96234.34
2023-04-19T12:38:39.936Z,96236.34
2023-04-19T12:39:41.425Z,96236.66
2023-04-19T12:40:43.209Z,96225.16